Latest METARs, TAFs and NOTAMs for EINN


---------------------------------------------------------------------------
	(OBSERVATIONS)
EINN 240900Z 28008KT 9999 FEW006 BKN012 BKN025 10/09 Q1013 NOSIG=
EINN 240830Z 30015KT 4000 -DZ FEW005 BKN009 10/09 Q1013 NOSIG=
EINN 240800Z 29012KT 7000 -DZ FEW005 BKN009 10/09 Q1012 NOSIG=
EINN 240730Z 28010KT 4000 -DZ FEW006 BKN011 10/09 Q1012 NOSIG=
EINN 240700Z 28009KT 7000 -DZ BKN012 10/09 Q1012 TEMPO 4000=
EINN 240630Z 31009KT 8000 BKN011 10/09 Q1011 TEMPO 4000=
---------------------------------------------------------------------------
	(FC)
Sorry, FC For EINN Not Found
---------------------------------------------------------------------------
	(TERMINAL AREA FORECAST)
EINN 240500Z 2406/2506 30012KT 9999 BKN012
    TEMPO 2406/2411 4000 -RADZ BKN004
    BECMG 2410/2412 BKN015
    TEMPO 2409/2418 30015G26KT
    TEMPO 2411/2418 5000 BKN010=
---------------------------------------------------------------------------
	(NOTAMS)


EINN A0059/19 RWY 24 RNAV STANDARD INSTRUMENT DEPARTURE (SID)
    SPEED RESTRICTION REMOVED FROM SID BUNON3B SID LUPOR3B SID
    UNBEG3B REF AIP EINN AD 2.24-6.1. 08 JAN 12:52 2019 UNTIL
    31 JAN 00:00 2019 ESTIMATED. CREATED: 08 JAN 12:55 2019

EINN A0152/19 ILS OM RWY 24 OUT OF SERVICE REF AIP EINN AD 2.19.
    15 JAN 12:39 2019 UNTIL 15 APR 12:00 2019 ESTIMATED. CREATED:
    15 JAN 12:39 2019

EINN A0157/19 TRIGGER NOTAM IRELAND AIRAC AMENDMENT NR 002 EFFECTIVE
    DATE 28 FEB 2019. INCLUDED IN THIS AMENDMENT IS THE REVISED
    EINN AD 2.12, AD 2.15, AD 2.22 AND 2.24. 28 FEB 00:00 2019
    UNTIL 14 MAR 23:59 2019. CREATED: 16 JAN 18:07 2019

EINN A0223/19 SID ABAGU3B SID AGINI3B SID BUNON3B SID ERABI3B
    SID LUNIG3B SID KURUM3B SID LUPOR3B SID MOMIN3B SID OSGAR3B
    SID PELIG3B SID UNBEG3B RWY 24 SID NOT AVBL. 22 JAN 10:27
    2019 UNTIL 20 APR 23:59 2019. CREATED: 22 JAN 10:28 2019

EINN A0224/19 SID ABAGU3A SID AGINI3A SID DIGAN3A SID ERABI3A
    SID KURUM3A SID LUNIG3A SID MOMIN3A SID TOMTO3A SID UNBEG3A
    RWY06 SIDS NOT AVBL. 22 JAN 10:27 2019 UNTIL 20 APR 23:59
    2019. CREATED: 22 JAN 10:28 2019

EINN A3007/18 NO TAKE-OFFS PERMITTED BELOW 125M RVR. 30 NOV 18:33
    2018 UNTIL 28 FEB 23:59 2019 ESTIMATED. CREATED: 30 NOV 18:37
    2018

EINN A3043/18 RWY 06 RNAV STANDARD INSTRUMENT DEPARTURE (SID)
    SPEED RESTRICTION REMOVED FROM SID ABAGU3A SID AGINI3A SID
    DIGAN3A SID TOMTO3A REF AIP EINN AD 2.24-5.1. 06 DEC 00:00
    2018 UNTIL 31 JAN 00:00 2019 ESTIMATED. CREATED: 05 DEC 18:24
    2018

EINN A3114/18 TRIGGER NOTAM IRELAND AIRAC AMENDMENT NR 001 EFFECTIVE
    DATE 31 JAN 2019. INCLUDED IN THIS AMENDMENT IS THE REVISED
    EINN AD 2.24 AERONAUTICAL CHARTS. 31 JAN 00:00 2019 UNTIL
    14 FEB 23:59 2019. CREATED: 14 DEC 10:54 2018

EINN B1142/15 HOLDING PROCEDURE CHANGED. RATE OF DESCENT IN HOLDING
    PATTERNS AMENDED TO: A STANDARD RATE OF DESCENT OF 1000FT
    PER MIN IN HOLDING PATTERNS WILL BE USED UNLESS OTHERWISE
    INSTRUCTED BY ATC. PILOTS MUST ADVISE ATC IF UNABLE TO COMPLY
    WITH THE STANDARD RATE OF DESCENT. REF AIP EINN AD 2.22 SECTION
    9. 02 OCT 18:07 2015 UNTIL PERM. CREATED: 01 MAY 11:24 2017

---------------------------------------------------------------------------